Time;durP1;ratioP1;P1;durP2;ratioP2;P2;SDS_P1;SDS_P2;PMS_P1;PMS_P2;Temp;Humidity;BMP_temperature;BMP_pressure;BME280_temperature;BME280_humidity;BME280_pressure;Samples;Min_cycle;Max_cycle;Signal;HPM_P1;HPM_P2
2021/10/10 00:00:32;;;;;;;;;;;;;;;7.96;92.81;102767.84;5076511;28;19932;-49
2021/10/10 00:02:59;;;;;;;;;;;;;;;7.99;92.24;102765.19;5074247;28;19928;-56
2021/10/10 00:05:26;;;;;;;;;;;;;;;8.03;92.58;102768.56;5088918;28;20011;-47
2021/10/10 00:07:52;;;;;;;;;;;;;;;7.93;92.75;102768.81;5076364;28;19924;-49
2021/10/10 00:10:19;;;;;;;;;;;;;;;7.91;92.56;102762.72;5075243;28;20413;-50
2021/10/10 00:12:45;;;;;;;;;;;;;;;7.89;92.69;102769.75;5072822;28;19928;-46
2021/10/10 00:15:12;;;;;;;;;;;;;;;7.87;92.51;102765.47;5074144;28;19929;-47
2021/10/10 00:17:39;;;;;;;;;;;;;;;7.97;92.05;102761.72;5076485;28;19998;-47
2021/10/10 00:20:06;;;;;;;;;;;;;;;7.91;91.98;102764.50;5075698;28;19925;-49
2021/10/10 00:22:33;;;;;;;;;;;;;;;7.76;92.35;102755.25;5088100;28;20688;-44
2021/10/10 00:25:00;;;;;;;;;;;;;;;7.81;91.60;102768.22;5073980;28;20995;-45
2021/10/10 00:27:27;;;;;;;;;;;;;;;7.78;91.07;102766.53;5074714;28;19924;-46
2021/10/10 00:29:54;;;;;;;;;;;;;;;7.75;91.91;102762.22;5075875;28;19928;-49
2021/10/10 00:32:21;;;;;;;;;;;;;;;7.78;91.68;102769.13;5073762;28;20440;-46
2021/10/10 00:34:47;;;;;;;;;;;;;;;7.69;91.55;102761.50;5072003;28;20363;-45
2021/10/10 00:37:14;;;;;;;;;;;;;;;7.67;91.59;102761.53;5075724;28;20019;-46
2021/10/10 00:39:41;;;;;;;;;;;;;;;7.53;92.15;102751.38;5075685;28;19925;-45
2021/10/10 00:42:07;;;;;;;;;;;;;;;7.50;92.17;102755.78;5075907;28;19924;-57
2021/10/10 00:44:34;;;;;;;;;;;;;;;7.54;91.95;102760.94;5107980;28;19924;-44
2021/10/10 00:47:01;;;;;;;;;;;;;;;7.43;91.36;102744.59;5075551;28;19935;-56
2021/10/10 00:49:27;;;;;;;;;;;;;;;7.43;91.75;102741.97;5075329;28;19978;-57
2021/10/10 00:51:54;;;;;;;;;;;;;;;7.48;91.32;102745.34;5075516;28;19978;-57
2021/10/10 00:54:21;;;;;;;;;;;;;;;7.44;91.46;102738.47;5090955;28;19932;-57
2021/10/10 00:56:47;;;;;;;;;;;;;;;7.31;91.76;102731.75;5107157;28;19925;-57
2021/10/10 00:59:14;;;;;;;;;;;;;;;7.31;92.52;102732.66;5075094;28;19925;-57
2021/10/10 01:01:40;;;;;;;;;;;;;;;7.19;92.28;102731.13;5075248;28;19948;-57
2021/10/10 01:04:07;;;;;;;;;;;;;;;7.20;92.38;102734.59;5072663;28;19928;-58
2021/10/10 01:06:34;;;;;;;;;;;;;;;7.20;91.90;102721.53;5072097;28;19928;-57
2021/10/10 01:09:00;;;;;;;;;;;;;;;7.18;92.18;102731.19;5073858;28;19929;-57
2021/10/10 01:11:28;;;;;;;;;;;;;;;7.14;91.90;102730.38;5075046;28;19948;-57
2021/10/10 01:13:54;;;;;;;;;;;;;;;7.04;92.84;102724.47;5075051;28;19950;-57
2021/10/10 01:16:21;;;;;;;;;;;;;;;6.98;93.26;102724.59;5107437;28;19925;-57
2021/10/10 01:18:48;;;;;;;;;;;;;;;7.04;92.34;102723.63;5074985;28;19956;-57
2021/10/10 01:21:15;;;;;;;;;;;;;;;6.99;92.77;102723.69;5074457;28;20440;-57
2021/10/10 01:23:41;;;;;;;;;;;;;;;7.00;92.41;102721.94;5073338;28;19982;-58
2021/10/10 01:26:08;;;;;;;;;;;;;;;7.04;91.86;102724.47;5072052;28;19929;-57
2021/10/10 01:28:35;;;;;;;;;;;;;;;7.07;92.27;102728.78;5105438;28;20015;-56
2021/10/10 01:31:01;;;;;;;;;;;;;;;6.98;92.08;102719.38;5056684;28;20429;-56
2021/10/10 01:33:28;;;;;;;;;;;;;;;6.99;92.10;102718.47;5074688;28;20352;-56
2021/10/10 01:35:54;;;;;;;;;;;;;;;7.02;92.46;102721.03;5074453;28;19974;-57
2021/10/10 01:38:21;;;;;;;;;;;;;;;6.93;92.04;102721.22;5072887;28;20441;-57
2021/10/10 01:40:48;;;;;;;;;;;;;;;6.84;93.65;102717.00;5104666;28;19928;-57
2021/10/10 01:43:14;;;;;;;;;;;;;;;6.80;93.27;102714.50;5102726;28;19924;-57
2021/10/10 01:45:41;;;;;;;;;;;;;;;6.75;92.45;102722.44;5106027;28;19928;-56
2021/10/10 01:48:08;;;;;;;;;;;;;;;6.75;93.11;102717.22;5074421;28;19967;-57
2021/10/10 01:50:36;;;;;;;;;;;;;;;6.82;92.56;102713.56;5073503;28;19935;-57
2021/10/10 01:53:03;;;;;;;;;;;;;;;6.86;91.96;102710.00;5071591;28;19974;-57
2021/10/10 01:55:30;;;;;;;;;;;;;;;6.79;93.51;102713.66;5073107;28;19924;-58
2021/10/10 01:57:57;;;;;;;;;;;;;;;6.79;93.05;102718.88;5074074;28;19925;-58
2021/10/10 02:00:23;;;;;;;;;;;;;;;6.74;91.84;102716.31;5072643;28;20364;-58
2021/10/10 02:02:50;;;;;;;;;;;;;;;6.65;92.79;102720.88;5089171;28;20299;-57
2021/10/10 02:05:17;;;;;;;;;;;;;;;6.74;93.10;102718.09;5072350;28;20415;-57
2021/10/10 02:07:43;;;;;;;;;;;;;;;6.72;93.34;102718.13;5069706;28;19928;-57
2021/10/10 02:10:10;;;;;;;;;;;;;;;6.59;94.06;102719.25;5073265;28;19928;-57
2021/10/10 02:12:37;;;;;;;;;;;;;;;6.65;94.38;102720.88;5072279;28;19978;-45
2021/10/10 02:15:04;;;;;;;;;;;;;;;6.72;93.02;102707.66;5070761;28;19977;-45
2021/10/10 02:17:31;;;;;;;;;;;;;;;6.71;92.64;102715.53;5086980;28;19925;-47
2021/10/10 02:19:57;;;;;;;;;;;;;;;6.60;93.00;102708.75;5073596;28;20320;-46
2021/10/10 02:22:25;;;;;;;;;;;;;;;6.55;93.17;102707.97;5106054;28;19947;-48
2021/10/10 02:24:52;;;;;;;;;;;;;;;6.46;92.33;102710.75;5073724;28;20299;-46
2021/10/10 02:27:19;;;;;;;;;;;;;;;6.46;93.01;102700.28;5069751;28;19928;-45
2021/10/10 02:29:45;;;;;;;;;;;;;;;6.46;92.18;102699.44;5070215;28;19924;-44
2021/10/10 02:32:12;;;;;;;;;;;;;;;6.44;92.55;102696.84;5106091;28;19924;-48
2021/10/10 02:34:38;;;;;;;;;;;;;;;6.43;92.49;102690.78;5072550;28;20371;-48
2021/10/10 02:37:05;;;;;;;;;;;;;;;6.43;92.83;102690.78;5070547;28;20359;-47
2021/10/10 02:39:32;;;;;;;;;;;;;;;6.43;92.56;102692.50;5072622;28;19951;-49
2021/10/10 02:41:59;;;;;;;;;;;;;;;6.46;93.23;102689.84;5072239;28;19950;-58
2021/10/10 02:44:26;;;;;;;;;;;;;;;6.38;93.05;102696.94;5102227;28;20276;-58
2021/10/10 02:46:52;;;;;;;;;;;;;;;6.35;92.49;102690.03;5071736;28;19960;-59
2021/10/10 02:49:19;;;;;;;;;;;;;;;6.30;92.21;102694.50;5072741;28;19925;-58
2021/10/10 02:51:46;;;;;;;;;;;;;;;6.21;92.81;102686.81;5072976;28;19931;-50
2021/10/10 02:54:12;;;;;;;;;;;;;;;6.19;93.21;102684.22;5070044;28;19924;-47
2021/10/10 02:56:39;;;;;;;;;;;;;;;6.16;92.69;102686.91;5070023;28;19974;-48
2021/10/10 02:59:05;;;;;;;;;;;;;;;6.25;92.11;102684.09;5072969;28;19925;-46
2021/10/10 03:01:32;;;;;;;;;;;;;;;6.22;92.84;102680.69;5073099;28;20342;-47
2021/10/10 03:04:00;;;;;;;;;;;;;;;6.34;91.24;102682.22;5073024;28;19978;-48
2021/10/10 03:06:26;;;;;;;;;;;;;;;6.19;92.02;102681.63;5073017;28;19924;-47
2021/10/10 03:08:53;;;;;;;;;;;;;;;6.11;91.78;102674.78;5105124;28;19990;-46
2021/10/10 03:11:20;;;;;;;;;;;;;;;6.07;92.57;102677.44;5104497;28;19978;-47
2021/10/10 03:13:46;;;;;;;;;;;;;;;6.08;92.48;102680.91;5068903;28;20531;-49
2021/10/10 03:16:13;;;;;;;;;;;;;;;6.10;92.75;102681.78;5103928;28;19971;-58
2021/10/10 03:18:39;;;;;;;;;;;;;;;5.98;92.68;102671.53;5072572;28;19978;-58
2021/10/10 03:21:06;;;;;;;;;;;;;;;6.07;91.57;102676.59;5070876;28;20429;-47
2021/10/10 03:23:33;;;;;;;;;;;;;;;6.04;92.22;102672.28;5069609;28;19924;-46
2021/10/10 03:25:59;;;;;;;;;;;;;;;6.08;93.05;102673.09;5072837;28;19925;-45
2021/10/10 03:28:26;;;;;;;;;;;;;;;5.91;94.49;102674.19;5105065;28;19993;-49
2021/10/10 03:30:53;;;;;;;;;;;;;;;5.87;94.29;102672.53;5105000;28;19924;-44
2021/10/10 03:33:19;;;;;;;;;;;;;;;5.91;94.53;102676.81;5069459;28;19925;-45
2021/10/10 03:35:46;;;;;;;;;;;;;;;5.95;96.31;102674.16;5070373;28;19999;-46
2021/10/10 03:38:12;;;;;;;;;;;;;;;5.97;96.05;102672.38;5070515;28;19967;-49
2021/10/10 03:40:39;;;;;;;;;;;;;;;5.99;95.53;102675.88;5072058;28;20015;-47
2021/10/10 03:43:06;;;;;;;;;;;;;;;5.89;95.81;102673.38;5072639;28;19978;-49
2021/10/10 03:45:33;;;;;;;;;;;;;;;5.90;95.99;102677.72;5104896;28;20267;-46
2021/10/10 03:48:00;;;;;;;;;;;;;;;5.95;96.27;102671.56;5072696;28;19924;-47
2021/10/10 03:50:26;;;;;;;;;;;;;;;5.89;96.66;102683.81;5088011;28;19974;-47
2021/10/10 03:52:54;;;;;;;;;;;;;;;5.93;96.95;102682.88;5071409;28;20027;-51
2021/10/10 03:55:42;;;;;;;;;;;;;;;5.88;97.37;102676.88;5072529;28;19978;-45
2021/10/10 03:58:09;;;;;;;;;;;;;;;5.86;97.21;102670.81;5097069;28;19932;-51
2021/10/10 04:00:37;;;;;;;;;;;;;;;5.88;96.83;102676.88;5068657;28;19935;-50
2021/10/10 04:03:06;;;;;;;;;;;;;;;5.87;97.21;102676.91;5071926;28;19925;-50
2021/10/10 04:08:00;;;;;;;;;;;;;;;5.71;98.27;102676.25;5069293;28;19986;-47
2021/10/10 04:10:27;;;;;;;;;;;;;;;5.64;98.23;102680.72;5070373;28;19974;-49
2021/10/10 04:12:54;;;;;;;;;;;;;;;5.58;98.94;102673.84;5072250;28;19928;-48
2021/10/10 04:15:21;;;;;;;;;;;;;;;5.72;98.90;102681.47;5072235;28;20391;-45
2021/10/10 04:17:47;;;;;;;;;;;;;;;5.73;98.07;102682.34;5087825;28;19974;-57
2021/10/10 04:20:14;;;;;;;;;;;;;;;5.58;97.88;102678.22;5072309;28;20401;-57
2021/10/10 04:22:41;;;;;;;;;;;;;;;5.56;98.43;102664.31;5087814;28;19925;-56
2021/10/10 04:25:08;;;;;;;;;;;;;;;5.59;97.62;102670.34;5072298;28;19940;-57
2021/10/10 04:27:36;;;;;;;;;;;;;;;5.48;97.98;102681.81;5071047;28;19978;-57
2021/10/10 04:30:03;;;;;;;;;;;;;;;5.43;98.38;102679.28;5071256;28;20436;-58
2021/10/10 04:32:29;;;;;;;;;;;;;;;5.58;97.63;102684.28;5072471;28;20920;-58
2021/10/10 04:34:56;;;;;;;;;;;;;;;5.54;97.20;102676.53;5073809;28;20398;-57
2021/10/10 04:37:23;;;;;;;;;;;;;;;5.45;97.68;102684.50;5074983;28;20378;-57
2021/10/10 04:39:49;;;;;;;;;;;;;;;5.47;98.67;102680.09;5074944;28;19924;-58
2021/10/10 04:42:16;;;;;;;;;;;;;;;5.40;98.53;102677.59;5075559;28;19928;-58
2021/10/10 04:44:42;;;;;;;;;;;;;;;5.38;99.00;102678.50;5075658;28;19977;-58
2021/10/10 04:47:09;;;;;;;;;;;;;;;5.46;98.26;102681.84;5107909;28;19924;-58
2021/10/10 04:49:36;;;;;;;;;;;;;;;5.48;98.50;102680.09;5108059;28;20256;-58
2021/10/10 04:52:02;;;;;;;;;;;;;;;5.40;97.68;102680.19;5106336;28;19924;-58
2021/10/10 04:54:29;;;;;;;;;;;;;;;5.35;97.37;102682.00;5072330;28;19935;-58
2021/10/10 04:56:56;;;;;;;;;;;;;;;5.32;97.78;102673.38;5074437;28;19924;-57
2021/10/10 04:59:23;;;;;;;;;;;;;;;5.36;97.80;102673.28;5071430;28;19924;-58
2021/10/10 05:01:49;;;;;;;;;;;;;;;5.39;97.72;102667.19;5072938;28;19959;-57
2021/10/10 05:04:16;;;;;;;;;;;;;;;5.36;98.10;102680.28;5091101;28;19924;-46
2021/10/10 05:06:43;;;;;;;;;;;;;;;5.49;97.50;102670.50;5075302;28;19924;-45
2021/10/10 05:09:10;;;;;;;;;;;;;;;5.45;97.33;102677.50;5075154;28;19951;-46
2021/10/10 05:11:37;;;;;;;;;;;;;;;5.32;97.17;102675.97;5075036;28;20376;-44
2021/10/10 05:14:03;;;;;;;;;;;;;;;5.44;96.85;102680.16;5074754;28;19925;-46
2021/10/10 05:16:30;;;;;;;;;;;;;;;5.45;96.85;102680.13;5074468;28;19924;-46
2021/10/10 05:18:56;;;;;;;;;;;;;;;5.29;96.47;102676.00;5073873;28;19924;-47
2021/10/10 05:21:23;;;;;;;;;;;;;;;5.19;97.20;102673.50;5072057;28;19924;-45
2021/10/10 05:23:49;;;;;;;;;;;;;;;5.24;97.34;102676.94;5072263;28;20019;-46
2021/10/10 05:26:16;;;;;;;;;;;;;;;5.20;97.75;102674.41;5071285;28;19928;-46
2021/10/10 05:28:43;;;;;;;;;;;;;;;5.16;97.55;102670.09;5069138;28;19935;-49
2021/10/10 05:31:09;;;;;;;;;;;;;;;5.15;98.71;102676.19;5074609;28;19935;-48
2021/10/10 05:33:36;;;;;;;;;;;;;;;5.08;99.03;102680.63;5074813;28;19998;-49
2021/10/10 05:36:03;;;;;;;;;;;;;;;5.17;99.03;102674.44;5074815;28;19924;-50
2021/10/10 05:38:29;;;;;;;;;;;;;;;5.23;98.89;102672.59;5074522;28;19929;-51
2021/10/10 05:40:56;;;;;;;;;;;;;;;5.24;99.22;102669.09;5074485;28;19974;-48
2021/10/10 05:43:22;;;;;;;;;;;;;;;5.11;99.52;102666.69;5074274;28;20432;-48
2021/10/10 05:45:49;;;;;;;;;;;;;;;5.10;99.55;102671.06;5074081;28;19929;-48
2021/10/10 05:48:16;;;;;;;;;;;;;;;5.18;97.88;102674.41;5074326;28;19978;-49
2021/10/10 05:50:43;;;;;;;;;;;;;;;5.18;98.73;102679.63;5074191;28;19928;-44
2021/10/10 05:53:09;;;;;;;;;;;;;;;5.16;98.53;102680.53;5106626;28;19970;-48
2021/10/10 05:55:40;;;;;;;;;;;;;;;5.16;98.43;102686.59;5071632;28;19929;-47
2021/10/10 05:58:09;;;;;;;;;;;;;;;5.03;99.04;102687.63;5102153;28;19932;-47
2021/10/10 06:00:36;;;;;;;;;;;;;;;5.13;99.02;102688.41;5105848;28;19924;-48
2021/10/10 06:03:06;;;;;;;;;;;;;;;5.34;97.79;102695.94;5074242;28;19924;-46
2021/10/10 06:05:33;;;;;;;;;;;;;;;5.27;97.99;102693.44;5070841;28;19936;-47
2021/10/10 06:08:00;;;;;;;;;;;;;;;5.25;98.74;102691.72;5103496;28;19925;-48
2021/10/10 06:10:28;;;;;;;;;;;;;;;5.28;99.57;102696.03;5105530;28;19925;-47
2021/10/10 06:12:54;;;;;;;;;;;;;;;5.21;100.00;102707.44;5073742;28;19962;-47
2021/10/10 06:15:21;;;;;;;;;;;;;;;5.17;99.96;102701.38;5073925;28;19994;-44
2021/10/10 06:17:47;;;;;;;;;;;;;;;5.17;99.19;102698.78;5106410;28;19924;-47
2021/10/10 06:20:14;;;;;;;;;;;;;;;5.20;99.99;102690.91;5073641;28;19951;-45
2021/10/10 06:22:41;;;;;;;;;;;;;;;5.23;99.94;102692.59;5105805;28;19924;-46
2021/10/10 06:25:07;;;;;;;;;;;;;;;5.17;99.73;102693.56;5073697;28;20389;-47
2021/10/10 06:27:34;;;;;;;;;;;;;;;5.14;100.00;102695.31;5073642;28;20326;-43
2021/10/10 06:30:01;;;;;;;;;;;;;;;5.21;100.00;102686.56;5072261;28;19932;-45
2021/10/10 06:32:27;;;;;;;;;;;;;;;5.15;100.00;102690.09;5073402;28;19994;-45
2021/10/10 06:34:54;;;;;;;;;;;;;;;5.33;100.00;102689.00;5072771;28;20299;-44
2021/10/10 06:37:20;;;;;;;;;;;;;;;5.38;100.00;102695.00;5072868;28;19963;-45
2021/10/10 06:39:47;;;;;;;;;;;;;;;5.48;99.66;102689.66;5073525;28;20509;-48
2021/10/10 06:42:16;;;;;;;;;;;;;;;5.36;99.95;102683.72;5071024;28;20296;-45
2021/10/10 06:44:43;;;;;;;;;;;;;;;5.31;99.80;102685.53;5070313;28;19993;-48
2021/10/10 06:47:10;;;;;;;;;;;;;;;5.42;98.88;102695.81;5072162;28;20395;-45
2021/10/10 06:49:36;;;;;;;;;;;;;;;5.42;99.05;102701.91;5071834;28;20375;-47
2021/10/10 06:52:03;;;;;;;;;;;;;;;5.47;99.55;102691.41;5070128;28;19932;-49
2021/10/10 06:54:29;;;;;;;;;;;;;;;5.45;100.00;102693.16;5070150;28;19928;-48
2021/10/10 06:56:56;;;;;;;;;;;;;;;5.53;100.00;102686.09;5073046;28;19924;-49
2021/10/10 06:59:23;;;;;;;;;;;;;;;5.61;99.80;102678.16;5073328;28;19925;-47
2021/10/10 07:01:49;;;;;;;;;;;;;;;5.57;100.00;102692.13;5072998;28;19925;-47
2021/10/10 07:04:16;;;;;;;;;;;;;;;5.63;100.00;102691.19;5105435;28;20031;-51
2021/10/10 07:06:43;;;;;;;;;;;;;;;5.66;100.00;102691.13;5073088;28;19924;-48
2021/10/10 07:09:14;;;;;;;;;;;;;;;5.77;100.00;102686.63;5104222;28;20295;-49
2021/10/10 07:11:41;;;;;;;;;;;;;;;5.88;99.84;102679.47;5072646;28;20611;-44
2021/10/10 07:14:07;;;;;;;;;;;;;;;5.82;100.00;102663.03;5104938;28;19924;-47
2021/10/10 07:16:35;;;;;;;;;;;;;;;5.82;100.00;102650.88;5070791;28;19924;-46
2021/10/10 07:19:02;;;;;;;;;;;;;;;5.81;100.00;102641.31;5070630;28;19928;-47
2021/10/10 07:24:53;;;;;;;;;;;;;;;5.96;99.30;102662.81;5072923;28;19925;-47
2021/10/10 07:26:53;;;;;;;;;;;;;;;6.08;98.72;102663.50;5072833;28;19928;-49
2021/10/10 07:29:19;;;;;;;;;;;;;;;6.40;99.42;102658.59;5069468;28;19928;-48
2021/10/10 07:31:46;;;;;;;;;;;;;;;6.52;98.14;102666.22;5070007;28;19925;-50
2021/10/10 07:34:13;;;;;;;;;;;;;;;6.90;97.35;102661.97;5071578;28;19974;-45
2021/10/10 07:36:39;;;;;;;;;;;;;;;7.03;96.33;102675.63;5072380;28;20441;-48
2021/10/10 07:39:06;;;;;;;;;;;;;;;7.19;95.52;102675.34;5071633;28;19929;-46
2021/10/10 07:41:35;;;;;;;;;;;;;;;7.21;96.13;102674.41;5054617;28;19925;-47
2021/10/10 07:44:05;;;;;;;;;;;;;;;7.31;95.44;102682.03;5069339;28;19929;-44
2021/10/10 07:46:34;;;;;;;;;;;;;;;7.49;95.28;102679.00;5070141;28;19925;-58
2021/10/10 07:49:00;;;;;;;;;;;;;;;7.45;95.09;102679.97;5104350;28;20331;-57
2021/10/10 07:51:28;;;;;;;;;;;;;;;7.65;95.93;102678.66;5072696;28;19925;-48
2021/10/10 07:53:55;;;;;;;;;;;;;;;7.84;95.79;102679.06;5072602;28;19931;-50
2021/10/10 07:56:22;;;;;;;;;;;;;;;8.31;93.82;102665.69;5072845;28;19959;-47
2021/10/10 07:58:49;;;;;;;;;;;;;;;8.75;93.96;102671.47;5072594;28;19932;-49
2021/10/10 08:01:16;;;;;;;;;;;;;;;8.94;90.98;102667.44;5087704;28;19924;-49
2021/10/10 08:03:43;;;;;;;;;;;;;;;9.22;90.53;102676.25;5104585;28;20417;-48
2021/10/10 08:06:10;;;;;;;;;;;;;;;9.48;91.86;102680.69;5073051;28;19929;-49
2021/10/10 08:08:36;;;;;;;;;;;;;;;9.54;91.08;102680.50;5076364;28;19931;-47
2021/10/10 08:11:03;;;;;;;;;;;;;;;9.76;90.44;102685.06;5073673;28;19981;-46
2021/10/10 08:13:30;;;;;;;;;;;;;;;9.67;90.74;102687.97;5071885;28;19928;-45
2021/10/10 08:15:56;;;;;;;;;;;;;;;9.95;88.78;102686.19;5075832;28;19924;-47
2021/10/10 08:18:23;;;;;;;;;;;;;;;10.06;89.06;102687.59;5076174;28;19931;-46
2021/10/10 08:20:50;;;;;;;;;;;;;;;10.09;87.90;102688.34;5076105;28;19978;-46
2021/10/10 08:23:16;;;;;;;;;;;;;;;10.25;87.90;102687.81;5072095;28;19936;-46
2021/10/10 08:25:43;;;;;;;;;;;;;;;10.27;87.57;102688.66;5073098;28;20019;-46
2021/10/10 08:28:10;;;;;;;;;;;;;;;10.42;87.27;102689.91;5075503;28;19928;-47
2021/10/10 08:30:36;;;;;;;;;;;;;;;10.67;85.67;102694.31;5075250;28;19925;-46
2021/10/10 08:33:03;;;;;;;;;;;;;;;10.70;87.38;102697.66;5075964;28;19924;-47
2021/10/10 08:35:30;;;;;;;;;;;;;;;10.82;87.23;102683.22;5074619;28;19925;-49
2021/10/10 08:37:56;;;;;;;;;;;;;;;10.78;86.86;102686.88;5075679;28;19932;-51
2021/10/10 08:40:23;;;;;;;;;;;;;;;10.94;85.85;102672.22;5075718;28;20018;-45
2021/10/10 08:42:54;;;;;;;;;;;;;;;11.21;85.44;102681.75;5075606;28;19924;-57
2021/10/10 08:45:24;;;;;;;;;;;;;;;11.14;85.29;102691.69;5107083;28;20310;-57
2021/10/10 08:47:51;;;;;;;;;;;;;;;11.18;85.79;102689.78;5075533;28;19932;-57
2021/10/10 08:50:19;;;;;;;;;;;;;;;11.12;87.07;102696.97;5075574;28;20722;-57
2021/10/10 08:52:46;;;;;;;;;;;;;;;11.20;86.77;102695.84;5075283;28;20045;-57
2021/10/10 08:55:13;;;;;;;;;;;;;;;11.09;87.30;102698.91;5107860;28;20497;-57
2021/10/10 08:57:39;;;;;;;;;;;;;;;11.45;85.86;102698.38;5107458;28;19940;-57
2021/10/10 09:00:10;;;;;;;;;;;;;;;11.60;86.21;102697.78;5074116;28;19925;-48
2021/10/10 09:02:39;;;;;;;;;;;;;;;11.63;86.20;102694.16;5106932;28;19924;-52
2021/10/10 09:05:06;;;;;;;;;;;;;;;11.76;85.29;102700.66;5107245;28;19924;-52
2021/10/10 09:07:33;;;;;;;;;;;;;;;12.18;85.10;102699.81;5075173;28;19970;-47
2021/10/10 09:10:16;;;;;;;;;;;;;;;12.29;84.67;102693.22;5075346;28;19975;-47
2021/10/10 09:12:43;;;;;;;;;;;;;;;12.33;83.10;102692.19;5072949;28;19924;-50
2021/10/10 09:15:10;;;;;;;;;;;;;;;12.44;82.11;102683.78;5104099;28;20380;-52
2021/10/10 09:17:37;;;;;;;;;;;;;;;12.51;83.45;102679.94;5074109;28;19928;-52
2021/10/10 09:20:05;;;;;;;;;;;;;;;12.57;82.99;102682.34;5107347;28;19932;-52
2021/10/10 09:22:32;;;;;;;;;;;;;;;12.75;82.03;102688.56;5074504;28;19932;-47
2021/10/10 09:25:09;;;;;;;;;;;;;;;12.60;81.95;102681.34;5105825;28;19967;-48
2021/10/10 09:27:35;;;;;;;;;;;;;;;12.53;81.60;102683.41;5070827;28;19969;-48
2021/10/10 09:30:04;;;;;;;;;;;;;;;12.61;83.33;102693.59;5071696;28;19924;-50
2021/10/10 09:32:32;;;;;;;;;;;;;;;12.80;83.38;102691.00;5074622;28;19993;-57
2021/10/10 09:34:59;;;;;;;;;;;;;;;12.93;83.49;102688.66;5074786;28;20399;-57
2021/10/10 09:37:44;;;;;;;;;;;;;;;12.74;83.09;102688.63;5074374;28;20516;-57
2021/10/10 09:40:23;;;;;;;;;;;;;;;13.11;83.20;102686.94;5104501;28;19925;-57
2021/10/10 09:42:51;;;;;;;;;;;;;;;13.40;81.28;102674.16;5074690;28;20260;-57
2021/10/10 09:45:25;;;;;;;;;;;;;;;13.68;80.89;102679.81;5073310;28;20011;-57
2021/10/10 09:47:54;;;;;;;;;;;;;;;13.74;79.76;102677.81;5104427;28;19974;-57
2021/10/10 09:50:20;;;;;;;;;;;;;;;14.03;79.35;102679.84;5103588;28;20280;-57
2021/10/10 09:52:58;;;;;;;;;;;;;;;14.37;78.13;102666.69;5073111;28;20019;-57
2021/10/10 09:55:25;;;;;;;;;;;;;;;14.36;76.26;102670.25;5074308;28;19924;-56
2021/10/10 09:57:51;;;;;;;;;;;;;;;14.16;77.17;102668.63;5073208;28;19971;-57
2021/10/10 10:00:22;;;;;;;;;;;;;;;14.10;77.02;102663.69;5074304;28;19924;-56
2021/10/10 10:02:50;;;;;;;;;;;;;;;14.20;76.35;102667.56;5074065;28;19925;-50
2021/10/10 10:05:32;;;;;;;;;;;;;;;14.39;76.53;102658.66;5072426;28;19924;-47
2021/10/10 10:07:59;;;;;;;;;;;;;;;14.59;75.95;102661.09;5071419;28;19929;-46
2021/10/10 10:10:27;;;;;;;;;;;;;;;14.70;75.91;102658.75;5074076;28;19924;-45
2021/10/10 10:12:54;;;;;;;;;;;;;;;15.14;74.61;102654.59;5072796;28;20456;-57
2021/10/10 10:15:28;;;;;;;;;;;;;;;15.76;73.13;102647.59;5106196;28;19989;-56
2021/10/10 10:17:55;;;;;;;;;;;;;;;16.00;69.32;102643.50;5106164;28;19985;-57
2021/10/10 10:20:23;;;;;;;;;;;;;;;16.35;70.39;102642.34;5071707;28;20458;-57
2021/10/10 10:22:53;;;;;;;;;;;;;;;16.82;67.21;102638.50;5103103;28;19990;-58
2021/10/10 10:25:20;;;;;;;;;;;;;;;17.06;65.07;102645.91;5071746;28;19947;-57
2021/10/10 10:27:49;;;;;;;;;;;;;;;17.35;64.08;102656.44;5069087;28;19982;-56
2021/10/10 10:30:16;;;;;;;;;;;;;;;17.64;63.12;102659.84;5071895;28;19924;-57
2021/10/10 10:32:42;;;;;;;;;;;;;;;18.05;62.71;102674.88;5103372;28;19924;-57
2021/10/10 10:35:13;;;;;;;;;;;;;;;18.37;61.96;102682.44;5103322;28;20673;-56
2021/10/10 10:37:42;;;;;;;;;;;;;;;18.59;60.38;102670.28;5073297;28;20018;-57
2021/10/10 10:40:15;;;;;;;;;;;;;;;18.61;59.48;102667.50;5072392;28;20407;-57
2021/10/10 10:42:43;;;;;;;;;;;;;;;19.02;58.81;102645.91;5069463;28;19924;-57
2021/10/10 10:45:28;;;;;;;;;;;;;;;19.14;57.90;102643.31;5071742;28;20375;-52
2021/10/10 10:48:04;;;;;;;;;;;;;;;19.45;56.68;102646.38;5073387;28;19931;-51
2021/10/10 10:50:32;;;;;;;;;;;;;;;19.51;54.80;102659.22;5073409;28;20020;-48
2021/10/10 10:53:00;;;;;;;;;;;;;;;19.58;54.93;102658.66;5073376;28;19924;-57
2021/10/10 10:55:28;;;;;;;;;;;;;;;19.97;53.84;102663.78;5071903;28;19929;-56
2021/10/10 10:58:10;;;;;;;;;;;;;;;19.91;53.99;102672.28;5105348;28;20350;-56
2021/10/10 11:00:40;;;;;;;;;;;;;;;20.08;53.03;102669.19;5068739;28;19925;-57
2021/10/10 11:03:11;;;;;;;;;;;;;;;20.46;52.81;102663.63;5071124;28;19963;-57
2021/10/10 11:05:49;;;;;;;;;;;;;;;20.81;52.04;102671.53;5072861;28;19924;-57
2021/10/10 11:08:19;;;;;;;;;;;;;;;20.81;52.74;102673.38;5073130;28;20011;-57
2021/10/10 11:11:01;;;;;;;;;;;;;;;20.23;51.47;102675.16;5070395;28;19972;-57
2021/10/10 11:13:28;;;;;;;;;;;;;;;20.64;51.16;102672.00;5070139;28;20362;-57
2021/10/10 11:15:57;;;;;;;;;;;;;;;20.97;51.67;102663.13;5105525;28;19924;-58
2021/10/10 11:18:26;;;;;;;;;;;;;;;21.02;49.93;102663.59;5072877;28;20058;-57
2021/10/10 11:20:53;;;;;;;;;;;;;;;21.32;49.17;102663.88;5104951;28;19928;-57
2021/10/10 11:23:20;;;;;;;;;;;;;;;21.39;48.31;102657.03;5072847;28;19928;-57
2021/10/10 11:25:50;;;;;;;;;;;;;;;21.50;48.75;102651.66;5105035;28;19928;-57
2021/10/10 11:28:17;;;;;;;;;;;;;;;21.98;48.76;102658.38;5071131;28;19925;-57
2021/10/10 11:30:44;;;;;;;;;;;;;;;21.82;48.30;102655.31;5069531;28;20669;-57
2021/10/10 11:33:13;;;;;;;;;;;;;;;22.17;46.20;102654.97;5072310;28;20333;-58
2021/10/10 11:35:40;;;;;;;;;;;;;;;22.16;47.28;102644.38;5104337;28;19960;-58
2021/10/10 11:38:07;;;;;;;;;;;;;;;22.10;46.52;102645.75;5104643;28;19924;-58
2021/10/10 11:40:34;;;;;;;;;;;;;;;21.97;46.84;102642.44;5091401;28;20296;-57
2021/10/10 11:43:01;;;;;;;;;;;;;;;22.43;46.87;102633.94;5075364;28;19936;-58
2021/10/10 11:45:28;;;;;;;;;;;;;;;22.49;47.44;102635.25;5092604;28;19932;-58
2021/10/10 11:47:55;;;;;;;;;;;;;;;22.67;45.84;102637.28;5079118;28;19925;-57
2021/10/10 11:50:21;;;;;;;;;;;;;;;22.93;47.29;102627.75;5075239;28;19924;-57
2021/10/10 11:53:00;;;;;;;;;;;;;;;22.59;47.10;102628.09;5075319;28;19925;-57
2021/10/10 11:55:35;;;;;;;;;;;;;;;22.87;45.47;102625.59;5111861;28;20562;-58
2021/10/10 11:58:02;;;;;;;;;;;;;;;22.40;46.28;102623.50;5079401;28;20307;-58
2021/10/10 12:00:33;;;;;;;;;;;;;;;22.61;46.75;102631.47;5111305;28;20375;-58
2021/10/10 12:03:10;;;;;;;;;;;;;;;22.95;45.21;102620.41;5079372;28;20258;-58
2021/10/10 12:05:38;;;;;;;;;;;;;;;23.04;44.77;102620.53;5076992;28;20035;-57
2021/10/10 12:08:14;;;;;;;;;;;;;;;22.68;45.58;102622.91;5076473;28;19990;-57
2021/10/10 12:10:42;;;;;;;;;;;;;;;22.96;46.02;102610.53;5077277;28;19978;-57
2021/10/10 12:13:09;;;;;;;;;;;;;;;23.14;45.50;102613.41;5079049;28;19931;-57
2021/10/10 12:15:36;;;;;;;;;;;;;;;23.09;44.28;102612.94;5079194;28;20375;-59
2021/10/10 12:18:09;;;;;;;;;;;;;;;23.25;44.50;102610.56;5111651;28;20418;-50
2021/10/10 12:20:35;;;;;;;;;;;;;;;22.91;44.33;102600.19;5079116;28;20403;-58
2021/10/10 12:23:09;;;;;;;;;;;;;;;22.93;45.40;102602.75;5077772;28;19931;-58
2021/10/10 12:25:40;;;;;;;;;;;;;;;23.07;44.76;102596.97;5077601;28;20405;-57
2021/10/10 12:28:10;;;;;;;;;;;;;;;23.20;42.94;102596.72;5079240;28;19924;-59
2021/10/10 12:30:39;;;;;;;;;;;;;;;23.20;42.67;102596.72;5077974;28;19930;-58
2021/10/10 12:33:20;;;;;;;;;;;;;;;23.28;42.97;102583.44;5076623;28;19947;-57
2021/10/10 12:35:51;;;;;;;;;;;;;;;23.09;43.65;102588.78;5078047;28;19970;-51
2021/10/10 12:38:26;;;;;;;;;;;;;;;23.56;42.47;102580.03;5111016;28;19924;-58
2021/10/10 12:40:53;;;;;;;;;;;;;;;23.69;41.46;102583.25;5077454;28;19989;-57
2021/10/10 12:43:36;;;;;;;;;;;;;;;24.02;41.47;102583.75;5077560;28;19928;-58
2021/10/10 12:46:02;;;;;;;;;;;;;;;23.94;41.41;102581.81;5078708;28;19946;-58
2021/10/10 12:48:29;;;;;;;;;;;;;;;23.67;40.87;102576.31;5078657;28;20298;-57
2021/10/10 12:50:57;;;;;;;;;;;;;;;23.61;40.52;102584.00;5090302;28;19932;-51